createdAt,value
2023-04-19T00:00:02.468Z,100.00
2023-04-19T00:02:34.300Z,100.00
2023-04-19T00:05:03.397Z,100.00
2023-04-19T00:07:32.736Z,100.00
2023-04-19T00:10:01.352Z,100.00
2023-04-19T00:12:30.663Z,100.00
2023-04-19T00:15:00.335Z,100.00
2023-04-19T00:17:29.787Z,100.00
2023-04-19T00:20:00.034Z,100.00
2023-04-19T00:22:28.559Z,100.00
2023-04-19T00:24:56.845Z,100.00
2023-04-19T00:27:25.594Z,100.00
2023-04-19T00:29:55.062Z,100.00
2023-04-19T00:32:23.781Z,100.00
2023-04-19T00:34:53.601Z,100.00
2023-04-19T00:37:23.709Z,100.00
2023-04-19T00:39:52.064Z,100.00
2023-04-19T00:42:21.228Z,100.00
2023-04-19T00:44:49.828Z,100.00
2023-04-19T00:47:18.398Z,100.00
2023-04-19T00:49:49.597Z,100.00
2023-04-19T00:52:20.029Z,100.00
2023-04-19T00:54:48.938Z,100.00
2023-04-19T00:57:17.768Z,100.00
2023-04-19T00:59:46.336Z,100.00
2023-04-19T01:02:14.829Z,100.00
2023-04-19T01:04:43.858Z,100.00
2023-04-19T01:07:12.113Z,100.00
2023-04-19T01:09:46.892Z,100.00
2023-04-19T01:12:17.959Z,100.00
2023-04-19T01:14:46.225Z,100.00
2023-04-19T01:17:14.606Z,100.00
2023-04-19T01:19:43.847Z,100.00
2023-04-19T01:22:19.438Z,100.00
2023-04-19T01:24:48.284Z,100.00
2023-04-19T01:27:19.885Z,100.00
2023-04-19T01:29:49.060Z,100.00
2023-04-19T01:32:19.349Z,100.00
2023-04-19T01:34:49.048Z,100.00
2023-04-19T01:37:18.728Z,100.00
2023-04-19T01:39:47.166Z,100.00
2023-04-19T01:42:16.435Z,100.00
2023-04-19T01:44:44.787Z,100.00
2023-04-19T01:47:13.408Z,100.00
2023-04-19T01:49:42.437Z,100.00
2023-04-19T01:52:10.713Z,100.00
2023-04-19T01:54:40.325Z,100.00
2023-04-19T01:57:08.717Z,100.00
2023-04-19T01:59:37.319Z,100.00
2023-04-19T02:02:08.421Z,100.00
2023-04-19T02:04:37.459Z,100.00
2023-04-19T02:07:08.093Z,100.00
2023-04-19T02:09:37.308Z,100.00
2023-04-19T02:12:07.451Z,100.00
2023-04-19T02:14:39.230Z,100.00
2023-04-19T02:17:07.483Z,100.00
2023-04-19T02:19:36.231Z,100.00
2023-04-19T02:22:04.648Z,100.00
2023-04-19T02:24:32.775Z,100.00
2023-04-19T02:27:02.905Z,100.00
2023-04-19T02:29:35.386Z,100.00
2023-04-19T02:32:07.094Z,100.00
2023-04-19T02:34:36.174Z,100.00
2023-04-19T02:37:04.528Z,100.00
2023-04-19T02:39:35.515Z,100.00
2023-04-19T02:42:07.028Z,100.00
2023-04-19T02:44:37.067Z,100.00
2023-04-19T02:47:06.646Z,100.00
2023-04-19T02:49:37.924Z,100.00
2023-04-19T02:52:06.990Z,100.00
2023-04-19T02:54:35.714Z,100.00
2023-04-19T02:57:04.246Z,100.00
2023-04-19T02:59:33.692Z,100.00
2023-04-19T03:02:06.867Z,100.00
2023-04-19T03:04:36.800Z,100.00
2023-04-19T03:07:06.095Z,100.00
2023-04-19T03:09:34.974Z,100.00
2023-04-19T03:12:03.148Z,100.00
2023-04-19T03:14:31.369Z,100.00
2023-04-19T03:17:00.945Z,100.00
2023-04-19T03:19:30.821Z,100.00
2023-04-19T03:21:59.261Z,100.00
2023-04-19T03:24:32.568Z,100.00
2023-04-19T03:27:11.007Z,100.00
2023-04-19T03:29:41.118Z,100.00
2023-04-19T03:32:12.849Z,100.00
2023-04-19T03:34:42.856Z,100.00
2023-04-19T03:37:13.216Z,100.00
2023-04-19T03:39:42.189Z,100.00
2023-04-19T03:42:15.374Z,100.00
2023-04-19T03:44:55.149Z,100.00
2023-04-19T03:47:25.205Z,100.00
2023-04-19T03:49:58.707Z,100.00
2023-04-19T03:52:29.395Z,100.00
2023-04-19T03:54:57.748Z,100.00
2023-04-19T03:57:43.761Z,100.00
2023-04-19T04:00:30.482Z,100.00
2023-04-19T04:03:01.912Z,100.00
2023-04-19T04:05:32.539Z,100.00
2023-04-19T04:08:02.556Z,100.00
2023-04-19T04:10:30.970Z,100.00
2023-04-19T04:12:59.358Z,100.00
2023-04-19T04:15:38.957Z,100.00
2023-04-19T04:18:09.293Z,100.00
2023-04-19T04:20:39.851Z,100.00
2023-04-19T04:23:11.537Z,100.00
2023-04-19T04:25:45.034Z,100.00
2023-04-19T04:28:15.834Z,100.00
2023-04-19T04:30:45.090Z,100.00
2023-04-19T04:33:14.634Z,100.00
2023-04-19T04:35:47.809Z,100.00
2023-04-19T04:38:25.006Z,100.00
2023-04-19T04:40:57.249Z,100.00
2023-04-19T04:43:29.904Z,100.00
2023-04-19T04:45:59.463Z,100.00
2023-04-19T04:48:32.312Z,100.00
2023-04-19T04:51:02.106Z,100.00
2023-04-19T04:53:31.790Z,100.00
2023-04-19T04:56:03.296Z,100.00
2023-04-19T04:58:32.562Z,100.00
2023-04-19T05:01:05.504Z,100.00
2023-04-19T05:03:39.082Z,100.00
2023-04-19T05:06:15.293Z,100.00
2023-04-19T05:08:43.848Z,100.00
2023-04-19T05:11:19.787Z,100.00
2023-04-19T05:13:49.075Z,100.00
2023-04-19T05:16:17.253Z,100.00
2023-04-19T05:18:48.485Z,100.00
2023-04-19T05:21:18.471Z,100.00
2023-04-19T05:23:47.237Z,100.00
2023-04-19T05:26:16.808Z,100.00
2023-04-19T05:28:46.759Z,100.00
2023-04-19T05:31:23.120Z,100.00
2023-04-19T05:34:07.421Z,100.00
2023-04-19T05:36:37.008Z,100.00
2023-04-19T05:39:06.737Z,100.00
2023-04-19T05:41:35.161Z,100.00
2023-04-19T05:44:03.891Z,100.00
2023-04-19T05:46:32.217Z,100.00
2023-04-19T05:49:01.525Z,100.00
2023-04-19T05:52:09.640Z,100.00
2023-04-19T05:54:45.492Z,100.00
2023-04-19T05:57:13.699Z,100.00
2023-04-19T05:59:42.200Z,100.00
2023-04-19T06:02:13.885Z,100.00
2023-04-19T06:04:43.782Z,100.00
2023-04-19T06:07:27.352Z,100.00
2023-04-19T06:09:59.884Z,100.00
2023-04-19T06:12:28.905Z,100.00
2023-04-19T06:14:57.371Z,100.00
2023-04-19T06:17:28.392Z,100.00
2023-04-19T06:19:56.993Z,100.00
2023-04-19T06:22:26.701Z,100.00
2023-04-19T06:24:54.924Z,100.00
2023-04-19T06:27:23.220Z,100.00
2023-04-19T06:29:56.338Z,100.00
2023-04-19T06:32:25.850Z,100.00
2023-04-19T06:34:54.392Z,100.00
2023-04-19T06:37:23.365Z,100.00
2023-04-19T06:39:57.758Z,100.00
2023-04-19T06:42:27.347Z,100.00
2023-04-19T06:44:57.341Z,100.00
2023-04-19T06:47:27.061Z,100.00
2023-04-19T06:49:55.518Z,100.00
2023-04-19T06:52:23.892Z,100.00
2023-04-19T06:54:54.145Z,100.00
2023-04-19T06:57:22.913Z,100.00
2023-04-19T06:59:53.227Z,100.00
2023-04-19T07:02:22.530Z,100.00
2023-04-19T07:04:51.484Z,100.00
2023-04-19T07:07:20.414Z,100.00
2023-04-19T07:09:48.985Z,100.00
2023-04-19T07:12:18.607Z,100.00
2023-04-19T07:14:46.600Z,100.00
2023-04-19T07:17:15.482Z,100.00
2023-04-19T07:19:48.598Z,100.00
2023-04-19T07:22:18.326Z,100.00
2023-04-19T07:24:46.823Z,100.00
2023-04-19T07:27:16.878Z,100.00
2023-04-19T07:29:47.532Z,100.00
2023-04-19T07:32:17.551Z,100.00
2023-04-19T07:34:46.246Z,100.00
2023-04-19T07:37:14.404Z,100.00
2023-04-19T07:39:44.418Z,100.00
2023-04-19T07:42:12.852Z,100.00
2023-04-19T07:44:42.649Z,100.00
2023-04-19T07:47:13.650Z,100.00
2023-04-19T07:49:41.930Z,100.00
2023-04-19T07:52:10.380Z,100.00
2023-04-19T07:54:40.339Z,100.00
2023-04-19T07:57:09.040Z,100.00
2023-04-19T07:59:40.715Z,100.00
2023-04-19T08:02:10.273Z,100.00
2023-04-19T08:04:41.320Z,100.00
2023-04-19T08:07:10.530Z,100.00
2023-04-19T08:09:38.850Z,100.00
2023-04-19T08:12:07.923Z,100.00
2023-04-19T08:19:42.895Z,100.00
2023-04-19T08:22:11.362Z,100.00
2023-04-19T08:24:39.525Z,100.00
2023-04-19T08:27:08.778Z,100.00
2023-04-19T08:29:37.230Z,100.00
2023-04-19T08:32:06.568Z,100.00
2023-04-19T08:34:36.370Z,100.00
2023-04-19T08:37:06.109Z,100.00
2023-04-19T08:39:35.042Z,100.00
2023-04-19T08:42:13.349Z,100.00
2023-04-19T08:47:30.795Z,100.00
2023-04-19T08:52:44.481Z,100.00
2023-04-19T08:55:21.301Z,100.00
2023-04-19T08:57:49.843Z,100.00
2023-04-19T09:00:19.711Z,100.00
2023-04-19T09:02:49.861Z,100.00
2023-04-19T09:05:19.680Z,100.00
2023-04-19T09:07:50.361Z,100.00
2023-04-19T09:10:20.322Z,100.00
2023-04-19T09:13:02.186Z,100.00
2023-04-19T09:15:38.916Z,100.00
2023-04-19T09:18:10.939Z,100.00
2023-04-19T09:20:39.938Z,100.00
2023-04-19T09:23:12.543Z,100.00
2023-04-19T09:26:05.705Z,100.00
2023-04-19T09:28:30.630Z,100.00
2023-04-19T09:31:10.720Z,100.00
2023-04-19T09:33:45.320Z,100.00
2023-04-19T09:36:28.276Z,100.00
2023-04-19T09:38:58.713Z,100.00
2023-04-19T09:41:27.522Z,100.00
2023-04-19T09:44:44.527Z,100.00
2023-04-19T09:46:58.880Z,100.00
2023-04-19T09:49:41.525Z,100.00
2023-04-19T09:52:16.469Z,100.00
2023-04-19T09:54:46.886Z,100.00
2023-04-19T09:57:16.136Z,100.00
2023-04-19T09:59:44.568Z,100.00
2023-04-19T10:02:15.103Z,100.00
2023-04-19T10:10:05.033Z,94.69
2023-04-19T10:12:59.226Z,100.00
2023-04-19T10:15:49.523Z,86.96
2023-04-19T10:18:21.290Z,88.79
2023-04-19T10:20:54.602Z,79.14
2023-04-19T10:23:24.266Z,80.79
2023-04-19T10:25:56.637Z,76.96
2023-04-19T10:28:29.535Z,76.51
2023-04-19T10:31:02.912Z,74.77
2023-04-19T10:33:33.392Z,72.95
2023-04-19T10:36:03.053Z,68.28
2023-04-19T10:38:39.384Z,71.28
2023-04-19T10:41:16.902Z,69.63
2023-04-19T10:43:47.921Z,71.00
2023-04-19T10:46:37.638Z,73.47
2023-04-19T10:49:07.761Z,69.02
2023-04-19T10:51:37.480Z,70.86
2023-04-19T10:54:06.830Z,69.12
2023-04-19T10:57:16.120Z,69.37
2023-04-19T10:59:48.338Z,70.13
2023-04-19T11:02:31.138Z,70.45
2023-04-19T11:05:05.697Z,69.95
2023-04-19T11:07:46.407Z,71.21
2023-04-19T11:10:16.748Z,72.48
2023-04-19T11:12:46.168Z,73.57
2023-04-19T11:15:16.152Z,68.82
2023-04-19T11:17:44.466Z,65.11
2023-04-19T11:20:14.866Z,61.51
2023-04-19T11:22:47.596Z,61.45
2023-04-19T11:25:19.047Z,58.77
2023-04-19T11:27:49.719Z,62.84
2023-04-19T11:30:22.504Z,62.93
2023-04-19T11:32:54.301Z,63.95
2023-04-19T11:35:24.824Z,63.82
2023-04-19T11:37:56.723Z,66.25
2023-04-19T11:40:27.113Z,62.52
2023-04-19T11:43:00.230Z,63.59
2023-04-19T11:45:35.439Z,64.70
2023-04-19T11:48:07.811Z,61.71
2023-04-19T11:50:39.769Z,59.99
2023-04-19T11:53:16.637Z,54.46
2023-04-19T11:55:48.279Z,53.86
2023-04-19T11:58:29.093Z,51.85
2023-04-19T12:01:04.838Z,54.19
2023-04-19T12:03:36.921Z,51.12
2023-04-19T12:06:09.087Z,55.17
2023-04-19T12:08:40.141Z,50.88
2023-04-19T12:11:08.480Z,53.32
2023-04-19T12:13:37.977Z,54.43
2023-04-19T12:16:08.914Z,53.25
2023-04-19T12:18:47.020Z,52.50
2023-04-19T12:21:27.308Z,58.03
2023-04-19T12:23:57.896Z,59.22
2023-04-19T12:26:28.168Z,61.05
2023-04-19T12:28:56.868Z,59.25
2023-04-19T12:31:27.063Z,57.60
2023-04-19T12:33:55.476Z,55.11
2023-04-19T12:36:23.760Z,56.65
2023-04-19T12:38:52.420Z,60.03
2023-04-19T12:41:23.808Z,59.63
2023-04-19T12:43:52.516Z,56.02
2023-04-19T12:46:20.727Z,52.99
2023-04-19T12:48:50.444Z,56.08
2023-04-19T12:51:20.886Z,55.19
2023-04-19T12:53:50.312Z,52.82
2023-04-19T12:56:21.805Z,52.78
2023-04-19T12:58:51.414Z,53.90
2023-04-19T13:01:20.939Z,51.72
2023-04-19T13:03:51.324Z,53.19
2023-04-19T13:06:34.027Z,53.23
2023-04-19T13:09:11.393Z,51.50
2023-04-19T13:11:42.275Z,51.61
2023-04-19T13:14:13.555Z,48.48
2023-04-19T13:16:45.007Z,47.15
2023-04-19T13:19:23.767Z,48.06
2023-04-19T13:21:52.052Z,43.23
2023-04-19T13:24:20.179Z,44.72
2023-04-19T13:26:50.899Z,43.92
2023-04-19T13:29:19.827Z,44.61
2023-04-19T13:32:10.419Z,43.53
2023-04-19T13:34:43.145Z,42.77
2023-04-19T13:37:11.691Z,37.87
2023-04-19T13:39:39.813Z,37.14
2023-04-19T13:42:08.284Z,36.50
2023-04-19T13:44:36.677Z,37.68
2023-04-19T13:47:06.642Z,36.81
2023-04-19T13:49:38.591Z,38.57
2023-04-19T13:52:10.963Z,38.46
2023-04-19T13:54:40.045Z,36.20
2023-04-19T13:57:10.303Z,35.61
2023-04-19T13:59:38.969Z,34.80
2023-04-19T14:02:07.730Z,34.46
2023-04-19T14:04:36.599Z,34.01
2023-04-19T14:07:07.622Z,34.34
2023-04-19T14:09:38.250Z,34.19
2023-04-19T14:12:09.052Z,33.10
2023-04-19T14:14:37.532Z,33.07
2023-04-19T14:17:05.655Z,34.88
2023-04-19T14:19:34.035Z,32.76
2023-04-19T14:22:02.138Z,34.26
2023-04-19T14:24:30.300Z,34.19
2023-04-19T14:27:10.354Z,32.50
2023-04-19T14:29:39.746Z,32.50
2023-04-19T14:32:24.196Z,32.63
2023-04-19T14:34:55.298Z,31.49
2023-04-19T14:37:24.802Z,32.67
2023-04-19T14:39:54.249Z,35.39
2023-04-19T14:42:26.447Z,33.80
2023-04-19T14:44:56.130Z,35.15
2023-04-19T14:47:25.269Z,34.12
2023-04-19T14:49:55.352Z,32.13
2023-04-19T14:52:24.452Z,33.81
2023-04-19T14:54:52.981Z,31.82
2023-04-19T14:57:21.533Z,31.00
2023-04-19T14:59:51.394Z,30.86
2023-04-19T15:02:19.745Z,33.39
2023-04-19T15:04:49.991Z,31.01
2023-04-19T15:07:18.551Z,29.91
2023-04-19T15:09:49.267Z,31.39
2023-04-19T15:12:17.977Z,31.23
2023-04-19T15:14:46.250Z,31.06
2023-04-19T15:17:17.339Z,32.84
2023-04-19T15:19:49.757Z,31.80
2023-04-19T15:22:21.543Z,31.96
2023-04-19T15:24:50.080Z,31.60
2023-04-19T15:27:18.456Z,30.28
2023-04-19T15:29:48.397Z,31.37
2023-04-19T15:32:22.399Z,31.86
2023-04-19T15:34:51.112Z,31.81
2023-04-19T15:37:19.834Z,31.95
2023-04-19T15:39:50.587Z,31.83
2023-04-19T15:42:18.892Z,31.32
2023-04-19T15:44:53.028Z,33.12
2023-04-19T15:47:25.659Z,32.55
2023-04-19T15:49:54.263Z,33.39
2023-04-19T15:52:23.134Z,33.69
2023-04-19T15:54:52.219Z,32.86
2023-04-19T15:57:21.854Z,33.00
2023-04-19T15:59:50.991Z,33.93
2023-04-19T16:02:19.746Z,33.34
2023-04-19T16:04:51.394Z,34.19
2023-04-19T16:07:21.805Z,33.93
2023-04-19T16:09:52.598Z,34.57
2023-04-19T16:12:21.174Z,34.45
2023-04-19T16:14:49.498Z,34.84
2023-04-19T16:17:18.095Z,35.45
2023-04-19T16:19:46.853Z,34.17
2023-04-19T16:22:16.895Z,34.51
2023-04-19T16:24:46.440Z,35.95
2023-04-19T16:27:14.826Z,35.49
2023-04-19T16:29:43.893Z,35.84
2023-04-19T16:32:13.544Z,35.47
2023-04-19T16:34:41.990Z,35.85
2023-04-19T16:37:10.784Z,36.09
2023-04-19T16:39:40.569Z,37.12
2023-04-19T16:42:08.859Z,37.54
2023-04-19T16:44:37.146Z,37.18
2023-04-19T16:47:05.697Z,37.97
2023-04-19T16:49:33.983Z,37.81
2023-04-19T16:52:02.192Z,38.66
2023-04-19T16:54:30.507Z,38.65
2023-04-19T16:57:02.907Z,39.13
2023-04-19T16:59:32.870Z,39.34
2023-04-19T17:02:02.937Z,40.18
2023-04-19T17:04:32.439Z,39.66
2023-04-19T17:07:01.336Z,40.17
2023-04-19T17:09:33.457Z,40.76
2023-04-19T17:12:04.083Z,41.06
2023-04-19T17:14:37.032Z,40.37
2023-04-19T17:17:05.427Z,40.62
2023-04-19T17:19:35.231Z,41.44
2023-04-19T17:22:06.988Z,41.18
2023-04-19T17:24:35.702Z,41.81
2023-04-19T17:27:05.587Z,41.03
2023-04-19T17:29:33.730Z,40.85
2023-04-19T17:32:02.421Z,42.14
2023-04-19T17:34:36.019Z,41.52
2023-04-19T17:37:05.149Z,42.68
2023-04-19T17:39:34.048Z,42.14
2023-04-19T17:42:02.228Z,41.35
2023-04-19T17:44:31.763Z,42.03
2023-04-19T17:47:00.627Z,41.99
2023-04-19T17:49:29.600Z,43.32
2023-04-19T17:51:58.138Z,42.65
2023-04-19T17:54:29.141Z,43.00
2023-04-19T17:56:59.323Z,43.01
2023-04-19T17:59:27.753Z,43.23
2023-04-19T18:01:57.723Z,43.47
2023-04-19T18:04:26.782Z,43.32
2023-04-19T18:06:54.998Z,43.55
2023-04-19T18:09:23.519Z,44.10
2023-04-19T18:11:51.623Z,44.35
2023-04-19T18:14:21.075Z,45.93
2023-04-19T18:16:49.573Z,44.62
2023-04-19T18:19:20.154Z,45.26
2023-04-19T18:21:48.833Z,45.44
2023-04-19T18:24:17.072Z,46.59
2023-04-19T18:26:45.397Z,46.97
2023-04-19T18:29:15.940Z,46.51
2023-04-19T18:31:45.669Z,48.12
2023-04-19T18:34:14.783Z,47.74
2023-04-19T18:36:44.444Z,47.58
2023-04-19T18:39:13.222Z,47.10
2023-04-19T18:41:41.735Z,47.79
2023-04-19T18:44:30.021Z,48.79
2023-04-19T18:46:59.168Z,49.28
2023-04-19T18:49:27.482Z,49.38
2023-04-19T18:51:57.359Z,48.01
2023-04-19T18:54:25.769Z,49.58
2023-04-19T18:59:26.072Z,49.68
2023-04-19T19:02:00.927Z,48.47
2023-04-19T19:04:48.188Z,48.84
2023-04-19T19:07:34.838Z,50.52
2023-04-19T19:10:18.194Z,51.26
2023-04-19T19:12:52.315Z,51.44
2023-04-19T19:15:26.683Z,51.18
2023-04-19T19:17:57.755Z,51.16
2023-04-19T19:20:40.084Z,50.77
2023-04-19T19:23:12.172Z,51.30
2023-04-19T19:25:42.546Z,51.52
2023-04-19T19:28:13.369Z,53.28
2023-04-19T19:30:45.120Z,52.65
2023-04-19T19:33:13.863Z,53.80
2023-04-19T19:35:49.452Z,53.60
2023-04-19T19:38:32.431Z,54.10
2023-04-19T19:43:45.490Z,55.07
2023-04-19T19:46:15.434Z,56.31
2023-04-19T19:48:43.773Z,56.52
2023-04-19T19:53:47.887Z,60.01
2023-04-19T19:56:21.912Z,60.17
2023-04-19T19:58:52.680Z,60.71
2023-04-19T20:01:32.743Z,62.92
2023-04-19T20:04:01.532Z,62.32
2023-04-19T20:09:05.530Z,65.94
2023-04-19T20:11:39.395Z,64.83
2023-04-19T20:14:07.732Z,69.21
2023-04-19T20:16:39.388Z,66.23
2023-04-19T20:19:10.704Z,63.10
2023-04-19T20:21:57.102Z,61.68
2023-04-19T20:24:28.063Z,61.45
2023-04-19T20:26:57.498Z,61.19
2023-04-19T20:29:25.976Z,61.22
2023-04-19T20:31:54.541Z,61.44
2023-04-19T20:34:25.275Z,60.48
2023-04-19T20:36:53.757Z,59.40
2023-04-19T20:39:23.332Z,58.80
2023-04-19T20:41:54.244Z,58.39
2023-04-19T20:44:23.143Z,58.74
2023-04-19T20:46:52.048Z,58.79
2023-04-19T20:49:20.416Z,59.91
2023-04-19T20:51:49.844Z,60.07
2023-04-19T20:54:18.556Z,60.00
2023-04-19T20:56:48.913Z,59.85
2023-04-19T20:59:19.310Z,58.37
2023-04-19T21:01:47.623Z,58.91
2023-04-19T21:04:18.341Z,58.98
2023-04-19T21:06:47.512Z,59.42
2023-04-19T21:09:15.912Z,59.02
2023-04-19T21:11:44.724Z,60.03
2023-04-19T21:14:15.693Z,60.81
2023-04-19T21:16:46.161Z,61.50
2023-04-19T21:19:14.752Z,60.89
2023-04-19T21:21:43.933Z,60.64
2023-04-19T21:24:12.314Z,62.05
2023-04-19T21:26:40.694Z,62.00
2023-04-19T21:29:09.152Z,62.24
2023-04-19T21:31:37.773Z,62.27
2023-04-19T21:34:08.413Z,62.61
2023-04-19T21:36:38.034Z,62.35
2023-04-19T21:39:06.287Z,63.06
2023-04-19T21:41:34.719Z,64.49
2023-04-19T21:44:03.509Z,65.86
2023-04-19T21:46:32.081Z,66.27
2023-04-19T21:49:00.325Z,67.40
2023-04-19T21:51:31.534Z,67.51
2023-04-19T21:54:00.369Z,67.48
2023-04-19T21:56:28.649Z,67.78
2023-04-19T21:58:57.240Z,68.75
2023-04-19T22:01:27.712Z,69.97
2023-04-19T22:03:57.312Z,72.20
2023-04-19T22:06:27.868Z,73.81
2023-04-19T22:08:59.225Z,75.50
2023-04-19T22:11:28.947Z,79.38
2023-04-19T22:13:57.713Z,82.45
2023-04-19T22:16:28.029Z,87.82
2023-04-19T22:18:56.545Z,92.44
2023-04-19T22:21:25.578Z,97.43
2023-04-19T22:23:54.585Z,100.00
2023-04-19T22:26:26.217Z,100.00
2023-04-19T22:28:55.222Z,100.00
2023-04-19T22:31:23.539Z,100.00
2023-04-19T22:33:51.838Z,100.00
2023-04-19T22:36:20.856Z,100.00
2023-04-19T22:38:49.515Z,100.00
2023-04-19T22:41:18.092Z,100.00
2023-04-19T22:43:48.111Z,100.00
2023-04-19T22:46:19.160Z,100.00
2023-04-19T22:48:48.365Z,100.00
2023-04-19T22:51:18.143Z,100.00
2023-04-19T22:53:47.092Z,100.00
2023-04-19T22:56:28.720Z,100.00
2023-04-19T22:59:01.606Z,100.00
2023-04-19T23:01:30.104Z,100.00
2023-04-19T23:03:58.505Z,100.00
2023-04-19T23:06:28.988Z,100.00
2023-04-19T23:08:57.618Z,100.00
2023-04-19T23:11:29.373Z,100.00
2023-04-19T23:13:57.638Z,100.00
2023-04-19T23:16:28.713Z,100.00
2023-04-19T23:18:57.003Z,100.00
2023-04-19T23:21:25.193Z,100.00
2023-04-19T23:23:53.456Z,100.00
2023-04-19T23:26:22.078Z,100.00
2023-04-19T23:28:50.459Z,100.00
2023-04-19T23:31:18.663Z,100.00
2023-04-19T23:33:51.405Z,100.00
2023-04-19T23:36:19.712Z,100.00
2023-04-19T23:38:48.149Z,100.00
2023-04-19T23:41:16.994Z,100.00
2023-04-19T23:43:50.047Z,100.00
2023-04-19T23:46:18.221Z,100.00
2023-04-19T23:48:47.636Z,100.00
2023-04-19T23:51:17.434Z,100.00
2023-04-19T23:53:45.467Z,100.00
2023-04-19T23:56:13.655Z,100.00
2023-04-19T23:58:42.086Z,100.00
